Time;durP1;ratioP1;P1;durP2;ratioP2;P2;SDS_P1;SDS_P2;PMS_P1;PMS_P2;Temp;Humidity;BMP_temperature;BMP_pressure;BME280_temperature;BME280_humidity;BME280_pressure;Samples;Min_cycle;Max_cycle;Signal;HPM_P1;HPM_P2
2023/05/23 00:00:18;;;;;;;;;;;;;;;18.85;100.00;99903.94;5042322;28;19940;-39
2023/05/23 00:02:44;;;;;;;;;;;;;;;19.22;100.00;99865.44;5042260;28;20663;-39
2023/05/23 00:05:09;;;;;;;;;;;;;;;20.14;100.00;99779.28;5043510;28;20024;-39
2023/05/23 00:07:34;;;;;;;;;;;;;;;18.36;100.00;99731.69;5041555;28;20332;-39
2023/05/23 00:09:59;;;;;;;;;;;;;;;18.28;100.00;99788.59;5040689;28;20263;-39
2023/05/23 00:12:24;;;;;;;;;;;;;;;18.73;100.00;99863.66;5043118;28;19924;-40
2023/05/23 00:14:52;;;;;;;;;;;;;;;18.59;100.00;99859.13;5041622;28;19921;-40
2023/05/23 00:17:17;;;;;;;;;;;;;;;19.45;100.00;99827.63;5024426;28;20382;-40
2023/05/23 00:19:44;;;;;;;;;;;;;;;19.59;100.00;99791.13;5042746;28;19921;-40
2023/05/23 00:22:09;;;;;;;;;;;;;;;18.80;100.00;99763.25;5040397;28;19920;-39
2023/05/23 00:24:35;;;;;;;;;;;;;;;19.23;100.00;99758.31;5042586;28;20334;-40
2023/05/23 00:27:00;;;;;;;;;;;;;;;19.97;100.00;99732.38;5042346;28;19920;-39
2023/05/23 00:29:26;;;;;;;;;;;;;;;19.27;100.00;99666.72;5040680;28;19925;-39
2023/05/23 00:31:51;;;;;;;;;;;;;;;19.54;100.00;99659.91;5039730;28;19996;-39
2023/05/23 00:34:16;;;;;;;;;;;;;;;20.00;100.00;99658.97;5042867;28;19975;-39
2023/05/23 00:36:43;;;;;;;;;;;;;;;18.96;100.00;99598.00;5040218;28;19917;-39
2023/05/23 00:39:08;;;;;;;;;;;;;;;18.34;100.00;99637.88;5042169;28;19923;-39
2023/05/23 00:41:35;;;;;;;;;;;;;;;18.43;100.00;99724.38;5039501;28;19912;-39
2023/05/23 00:44:00;;;;;;;;;;;;;;;17.88;100.00;99770.63;5041774;28;19932;-39
2023/05/23 00:46:25;;;;;;;;;;;;;;;18.04;100.00;99863.66;5040757;28;19917;-39
2023/05/23 00:48:51;;;;;;;;;;;;;;;17.86;100.00;99910.56;5042127;28;20590;-39
2023/05/23 00:51:16;;;;;;;;;;;;;;;17.91;100.00;99968.50;5024075;28;19921;-39
2023/05/23 00:53:42;;;;;;;;;;;;;;;18.03;100.00;100007.94;5040980;28;19916;-39
2023/05/23 00:56:07;;;;;;;;;;;;;;;18.22;100.00;100055.69;5022465;28;19924;-39
2023/05/23 00:58:33;;;;;;;;;;;;;;;18.35;100.00;100043.75;5042345;28;20022;-40
2023/05/23 01:00:58;;;;;;;;;;;;;;;17.95;100.00;100016.13;5040752;28;19917;-40
2023/05/23 01:03:27;;;;;;;;;;;;;;;17.71;100.00;100051.91;5022860;28;19932;-39
2023/05/23 01:05:53;;;;;;;;;;;;;;;17.38;100.00;100104.59;5041709;28;19986;-39
2023/05/23 01:08:18;;;;;;;;;;;;;;;17.24;100.00;100143.34;5040368;28;20046;-39
2023/05/23 01:10:43;;;;;;;;;;;;;;;17.23;95.54;100207.59;5041322;28;20014;-39
2023/05/23 01:13:20;;;;;;;;;;;;;;;17.01;89.56;100240.56;5041081;28;19928;-39
2023/05/23 01:15:48;;;;;;;;;;;;;;;17.10;84.60;100293.09;5039677;28;19944;-39
2023/05/23 01:18:25;;;;;;;;;;;;;;;16.86;84.49;100309.66;5041280;28;20019;-39
2023/05/23 01:20:50;;;;;;;;;;;;;;;17.28;81.86;100353.19;5040977;28;19964;-39
2023/05/23 01:23:36;;;;;;;;;;;;;;;17.13;81.02;100368.50;5040836;28;19963;-39
2023/05/23 01:26:01;;;;;;;;;;;;;;;17.40;83.42;100373.56;5024601;28;20520;-39
2023/05/23 01:28:35;;;;;;;;;;;;;;;17.47;82.20;100385.47;5039965;28;19944;-39
2023/05/23 01:31:01;;;;;;;;;;;;;;;17.33;85.50;100377.31;5022531;28;19916;-39
2023/05/23 01:33:26;;;;;;;;;;;;;;;17.56;83.01;100400.72;5021452;28;20357;-39
2023/05/23 01:35:51;;;;;;;;;;;;;;;17.21;83.13;100393.41;5020520;28;20055;-39
2023/05/23 01:38:17;;;;;;;;;;;;;;;17.17;82.71;100410.03;5040176;28;19916;-39
2023/05/23 01:40:42;;;;;;;;;;;;;;;17.52;83.17;100435.63;5040114;28;19920;-39
2023/05/23 01:43:07;;;;;;;;;;;;;;;17.29;85.24;100417.41;5039936;28;19921;-39
2023/05/23 01:45:32;;;;;;;;;;;;;;;17.30;83.42;100429.50;5021057;28;19959;-39
2023/05/23 01:47:57;;;;;;;;;;;;;;;16.90;85.34;100425.72;5021752;28;19932;-39
2023/05/23 01:50:23;;;;;;;;;;;;;;;16.83;79.97;100445.06;5022145;28;19920;-39
2023/05/23 01:52:48;;;;;;;;;;;;;;;17.04;82.66;100459.94;5023319;28;20015;-39
2023/05/23 01:55:14;;;;;;;;;;;;;;;16.93;83.91;100451.66;5039495;28;19931;-39
2023/05/23 01:57:39;;;;;;;;;;;;;;;16.90;86.43;100447.41;5023124;28;20518;-39
2023/05/23 02:00:05;;;;;;;;;;;;;;;17.12;85.33;100452.69;5037918;28;19985;-39
2023/05/23 02:02:31;;;;;;;;;;;;;;;17.01;83.80;100465.22;5039241;28;19916;-39
2023/05/23 02:04:57;;;;;;;;;;;;;;;17.06;84.84;100468.56;5040467;28;20356;-39
2023/05/23 02:07:22;;;;;;;;;;;;;;;17.25;84.58;100473.94;5021580;28;19920;-39
2023/05/23 02:09:47;;;;;;;;;;;;;;;17.48;90.57;100460.06;5036293;28;19971;-39
2023/05/23 02:12:13;;;;;;;;;;;;;;;17.01;90.16;100423.59;5040398;28;19921;-39
2023/05/23 02:14:38;;;;;;;;;;;;;;;17.45;91.19;100444.56;5038833;28;19921;-39
2023/05/23 02:17:03;;;;;;;;;;;;;;;17.59;94.52;100430.19;5020757;28;19920;-39
2023/05/23 02:19:29;;;;;;;;;;;;;;;17.37;95.74;100407.53;5040314;28;19974;-39
2023/05/23 02:21:54;;;;;;;;;;;;;;;17.76;99.01;100391.28;5039705;28;20179;-39
2023/05/23 02:24:19;;;;;;;;;;;;;;;17.29;100.00;100354.91;5039412;28;19928;-39
2023/05/23 02:26:44;;;;;;;;;;;;;;;17.71;99.50;100383.66;5037789;28;19924;-39
2023/05/23 02:29:10;;;;;;;;;;;;;;;17.10;96.61;100365.16;5039806;28;20366;-39
2023/05/23 02:31:35;;;;;;;;;;;;;;;16.82;95.12;100388.75;5038844;28;20297;-39
2023/05/23 02:34:00;;;;;;;;;;;;;;;17.45;91.10;100426.34;5039101;28;20378;-39
2023/05/23 02:36:25;;;;;;;;;;;;;;;17.47;91.52;100437.56;5037228;28;20427;-39
2023/05/23 02:38:51;;;;;;;;;;;;;;;17.27;96.42;100407.03;5039813;28;20168;-39
2023/05/23 02:41:16;;;;;;;;;;;;;;;17.76;95.78;100406.91;5039709;28;19979;-40
2023/05/23 02:43:41;;;;;;;;;;;;;;;17.63;100.00;100369.22;5038841;28;19921;-39
2023/05/23 02:46:06;;;;;;;;;;;;;;;17.72;100.00;100363.63;5019858;28;20016;-39
2023/05/23 02:48:32;;;;;;;;;;;;;;;17.62;100.00;100341.47;5038682;28;19959;-39
2023/05/23 02:50:57;;;;;;;;;;;;;;;18.03;100.00;100344.19;5021872;28;19964;-39
2023/05/23 02:53:22;;;;;;;;;;;;;;;18.11;100.00;100321.25;5039622;28;19944;-39
2023/05/23 02:55:47;;;;;;;;;;;;;;;17.98;100.00;100276.63;5037988;28;19925;-39
2023/05/23 02:58:13;;;;;;;;;;;;;;;18.11;100.00;100261.28;5039514;28;19923;-39
2023/05/23 03:00:39;;;;;;;;;;;;;;;18.31;100.00;100247.41;5038983;28;19928;-39
2023/05/23 03:03:04;;;;;;;;;;;;;;;17.90;100.00;100217.03;5038968;28;20003;-39
2023/05/23 03:05:29;;;;;;;;;;;;;;;19.04;100.00;100232.78;5044014;28;19936;-39
2023/05/23 03:07:54;;;;;;;;;;;;;;;18.21;100.00;100147.88;5042422;28;19921;-39
2023/05/23 03:10:20;;;;;;;;;;;;;;;18.29;100.00;100170.97;5040584;28;19920;-39
2023/05/23 03:12:45;;;;;;;;;;;;;;;18.57;100.00;100154.94;5040518;28;19920;-39
2023/05/23 03:15:11;;;;;;;;;;;;;;;19.28;100.00;100117.63;5042982;28;19916;-39
2023/05/23 03:17:36;;;;;;;;;;;;;;;18.70;100.00;100077.78;5025261;28;19999;-40
2023/05/23 03:20:03;;;;;;;;;;;;;;;18.50;100.00;100047.41;5040794;28;20282;-40
2023/05/23 03:22:28;;;;;;;;;;;;;;;18.76;100.00;100076.63;5043841;28;19920;-40
2023/05/23 03:24:53;;;;;;;;;;;;;;;18.72;100.00;100035.94;5042913;28;19931;-40
2023/05/23 03:27:19;;;;;;;;;;;;;;;18.33;100.00;100043.00;5042227;28;19924;-39
2023/05/23 03:29:44;;;;;;;;;;;;;;;17.92;100.00;100095.28;5041967;28;19925;-40
2023/05/23 03:32:09;;;;;;;;;;;;;;;18.10;100.00;100143.13;5025176;28;19928;-39
2023/05/23 03:34:35;;;;;;;;;;;;;;;18.60;100.00;100180.88;5042884;28;19924;-39
2023/05/23 03:37:00;;;;;;;;;;;;;;;18.43;100.00;100110.38;5041139;28;19920;-39
2023/05/23 03:39:25;;;;;;;;;;;;;;;17.89;100.00;100129.31;5041406;28;19921;-39
2023/05/23 03:41:51;;;;;;;;;;;;;;;18.33;100.00;100173.38;5041107;28;19964;-39
2023/05/23 03:44:16;;;;;;;;;;;;;;;18.16;100.00;100135.03;5041778;28;20010;-39
2023/05/23 03:46:41;;;;;;;;;;;;;;;17.77;100.00;100163.69;5041110;28;19920;-39
2023/05/23 03:49:06;;;;;;;;;;;;;;;17.93;100.00;100188.19;5040627;28;20015;-39
2023/05/23 03:51:32;;;;;;;;;;;;;;;17.97;100.00;100234.09;5042553;28;19924;-39
2023/05/23 03:53:58;;;;;;;;;;;;;;;17.80;100.00;100251.31;5043019;28;20259;-39
2023/05/23 03:56:23;;;;;;;;;;;;;;;17.76;100.00;100276.63;5041617;28;19943;-39
2023/05/23 03:58:48;;;;;;;;;;;;;;;18.12;100.00;100294.28;5043114;28;19923;-39
2023/05/23 04:01:13;;;;;;;;;;;;;;;17.82;100.00;100267.75;5041802;28;19920;-39
2023/05/23 04:03:39;;;;;;;;;;;;;;;18.16;100.00;100286.28;5042923;28;19924;-39
2023/05/23 04:06:04;;;;;;;;;;;;;;;17.82;100.00;100284.22;5042621;28;19920;-39
2023/05/23 04:08:32;;;;;;;;;;;;;;;17.77;100.00;100314.81;5023918;28;19954;-39
2023/05/23 04:10:58;;;;;;;;;;;;;;;18.05;100.00;100324.13;5041850;28;20058;-39
2023/05/23 04:13:25;;;;;;;;;;;;;;;17.63;100.00;100331.00;5042143;28;20387;-39
2023/05/23 04:15:51;;;;;;;;;;;;;;;17.68;97.51;100375.13;5040382;28;20301;-40
2023/05/23 04:18:16;;;;;;;;;;;;;;;17.19;95.71;100384.78;5042968;28;19967;-39
2023/05/23 04:20:41;;;;;;;;;;;;;;;17.84;92.38;100435.31;5042610;28;19954;-39
2023/05/23 04:23:07;;;;;;;;;;;;;;;17.68;94.92;100424.63;5040709;28;19921;-39
2023/05/23 04:25:33;;;;;;;;;;;;;;;17.32;88.99;100432.91;5042207;28;19927;-40
2023/05/23 04:27:58;;;;;;;;;;;;;;;17.38;87.12;100466.53;5042026;28;19982;-39
2023/05/23 04:30:23;;;;;;;;;;;;;;;17.38;79.49;100508.22;5041075;28;19928;-40
2023/05/23 04:32:49;;;;;;;;;;;;;;;17.02;74.77;100529.41;5041714;28;19950;-39
2023/05/23 04:35:14;;;;;;;;;;;;;;;16.94;67.48;100573.06;5041271;28;19992;-39
2023/05/23 04:37:40;;;;;;;;;;;;;;;16.85;58.47;100608.03;5041205;28;20535;-39
2023/05/23 04:40:06;;;;;;;;;;;;;;;16.73;50.87;100645.66;5042597;28;20000;-39
2023/05/23 04:42:32;;;;;;;;;;;;;;;16.65;46.01;100688.41;5041824;28;20035;-39
2023/05/23 04:44:57;;;;;;;;;;;;;;;16.34;39.05;100727.50;5039913;28;19925;-39
2023/05/23 04:47:27;;;;;;;;;;;;;;;16.90;36.43;100790.03;5042304;28;19920;-39
2023/05/23 04:49:53;;;;;;;;;;;;;;;16.48;38.10;100811.16;5042373;28;19923;-39
2023/05/23 04:52:19;;;;;;;;;;;;;;;16.76;33.84;100852.00;5040922;28;19924;-39
2023/05/23 04:54:45;;;;;;;;;;;;;;;16.72;34.17;100878.13;5041477;28;20497;-39
2023/05/23 04:57:11;;;;;;;;;;;;;;;16.54;33.17;100895.97;5042393;28;20491;-39
2023/05/23 04:59:37;;;;;;;;;;;;;;;16.76;31.38;100933.50;5038116;28;19949;-39
2023/05/23 05:02:02;;;;;;;;;;;;;;;16.58;32.27;100947.00;5041071;28;19956;-40
2023/05/23 05:04:27;;;;;;;;;;;;;;;16.49;31.08;100961.13;5020845;28;19987;-39
2023/05/23 05:06:52;;;;;;;;;;;;;;;16.55;30.71;100984.34;5040989;28;19920;-39
2023/05/23 05:09:18;;;;;;;;;;;;;;;16.12;30.29;100987.97;5040716;28;20589;-40
2023/05/23 05:11:43;;;;;;;;;;;;;;;16.44;27.81;101022.78;5040148;28;19929;-39
2023/05/23 05:14:08;;;;;;;;;;;;;;;16.96;28.66;101070.97;5041394;28;20421;-39
2023/05/23 05:16:34;;;;;;;;;;;;;;;16.88;31.29;101072.94;5039533;28;20507;-39
2023/05/23 05:19:00;;;;;;;;;;;;;;;16.72;31.92;101062.84;5040597;28;19921;-39
2023/05/23 05:21:25;;;;;;;;;;;;;;;16.83;31.61;101080.84;5041250;28;20144;-39
2023/05/23 05:23:51;;;;;;;;;;;;;;;17.18;32.21;101101.69;5039931;28;19928;-39
2023/05/23 05:26:16;;;;;;;;;;;;;;;16.67;34.14;101080.31;5039876;28;19928;-39
2023/05/23 05:28:41;;;;;;;;;;;;;;;16.26;35.13;101060.44;5041160;28;19913;-39
2023/05/23 05:31:06;;;;;;;;;;;;;;;16.60;33.23;101098.69;5037819;28;20007;-39
2023/05/23 05:33:35;;;;;;;;;;;;;;;16.48;31.71;101115.44;5040550;28;19925;-39
2023/05/23 05:36:03;;;;;;;;;;;;;;;16.34;30.92;101127.91;5037895;28;19948;-39
2023/05/23 05:38:28;;;;;;;;;;;;;;;16.33;31.53;101132.25;5039648;28;20440;-39
2023/05/23 05:40:53;;;;;;;;;;;;;;;16.99;30.48;101180.22;5037780;28;19995;-39
2023/05/23 05:43:18;;;;;;;;;;;;;;;16.80;33.32;101155.50;5040135;28;19924;-39
2023/05/23 05:45:44;;;;;;;;;;;;;;;16.55;32.94;101158.63;5038714;28;19920;-39
2023/05/23 05:48:10;;;;;;;;;;;;;;;16.37;31.63;101159.03;5039972;28;19977;-40
2023/05/23 05:50:36;;;;;;;;;;;;;;;16.58;30.80;101197.59;5037020;28;19948;-41
2023/05/23 05:53:01;;;;;;;;;;;;;;;16.08;32.07;101163.97;5039326;28;19923;-39
2023/05/23 05:55:26;;;;;;;;;;;;;;;16.55;31.24;101209.81;5040446;28;20340;-39
2023/05/23 05:57:51;;;;;;;;;;;;;;;16.41;32.03;101202.28;5040194;28;19917;-39
2023/05/23 06:00:17;;;;;;;;;;;;;;;16.72;31.64;101228.53;5039019;28;19932;-39
2023/05/23 06:02:43;;;;;;;;;;;;;;;15.96;32.67;101195.38;5020889;28;19924;-39
2023/05/23 06:05:11;;;;;;;;;;;;;;;16.31;30.16;101236.28;5040763;28;19967;-39
2023/05/23 06:07:36;;;;;;;;;;;;;;;16.37;30.56;101244.84;5039379;28;19916;-39
2023/05/23 06:10:02;;;;;;;;;;;;;;;16.46;30.63;101253.31;5037178;28;19920;-39
2023/05/23 06:12:27;;;;;;;;;;;;;;;16.12;30.81;101241.88;5020964;28;19959;-39
2023/05/23 06:14:53;;;;;;;;;;;;;;;16.36;29.11;101270.00;5038922;28;19924;-39
2023/05/23 06:17:18;;;;;;;;;;;;;;;16.37;30.19;101269.09;5038566;28;19921;-39
2023/05/23 06:19:43;;;;;;;;;;;;;;;16.23;32.01;101261.56;5038989;28;19921;-39
2023/05/23 06:22:08;;;;;;;;;;;;;;;15.77;30.10;101262.41;5040017;28;19970;-39
2023/05/23 06:24:33;;;;;;;;;;;;;;;15.86;27.89;101287.38;5039835;28;19995;-39
2023/05/23 06:26:59;;;;;;;;;;;;;;;15.98;26.27;101317.50;5039578;28;20016;-39
2023/05/23 06:29:24;;;;;;;;;;;;;;;15.95;25.52;101340.94;5036303;28;19931;-39
2023/05/23 06:31:50;;;;;;;;;;;;;;;15.77;26.78;101345.56;5038691;28;19921;-39
2023/05/23 06:34:15;;;;;;;;;;;;;;;15.85;24.98;101372.28;5039585;28;19913;-39
2023/05/23 06:36:41;;;;;;;;;;;;;;;15.71;23.84;101384.59;5036818;28;19977;-39
2023/05/23 06:39:08;;;;;;;;;;;;;;;15.75;24.63;101401.88;5039423;28;19917;-39
2023/05/23 06:41:34;;;;;;;;;;;;;;;15.99;24.96;101441.38;5039786;28;19913;-39
2023/05/23 06:43:59;;;;;;;;;;;;;;;15.53;25.83;101427.28;5039041;28;19928;-39
2023/05/23 06:46:24;;;;;;;;;;;;;;;15.51;24.67;101451.53;5038225;28;19924;-39
2023/05/23 06:48:50;;;;;;;;;;;;;;;15.55;24.81;101468.78;5039173;28;20578;-39
2023/05/23 06:51:15;;;;;;;;;;;;;;;15.80;24.54;101516.97;5039880;28;19923;-39
2023/05/23 06:53:40;;;;;;;;;;;;;;;15.21;26.60;101497.75;5039003;28;19913;-39
2023/05/23 06:56:05;;;;;;;;;;;;;;;15.52;24.99;101551.97;5039100;28;19970;-39
2023/05/23 06:58:30;;;;;;;;;;;;;;;15.57;25.56;101570.94;5039609;28;20027;-39
2023/05/23 07:00:56;;;;;;;;;;;;;;;15.77;25.86;101605.38;5038031;28;19923;-39
2023/05/23 07:03:21;;;;;;;;;;;;;;;16.29;25.68;101646.31;5039236;28;19917;-39
2023/05/23 07:05:46;;;;;;;;;;;;;;;15.74;26.81;101608.00;5037400;28;20163;-39
2023/05/23 07:08:11;;;;;;;;;;;;;;;15.38;26.76;101612.69;5038347;28;19921;-39
2023/05/23 07:10:40;;;;;;;;;;;;;;;15.41;26.29;101643.81;5036742;28;19920;-39
2023/05/23 07:13:05;;;;;;;;;;;;;;;15.04;27.35;101628.56;5038333;28;19924;-39
2023/05/23 07:15:30;;;;;;;;;;;;;;;15.67;26.54;101702.47;5019599;28;19912;-39
2023/05/23 07:17:55;;;;;;;;;;;;;;;15.21;26.88;101684.66;5039238;28;19916;-39
2023/05/23 07:20:20;;;;;;;;;;;;;;;15.35;26.81;101711.41;5038961;28;19967;-39
2023/05/23 07:22:46;;;;;;;;;;;;;;;14.86;28.77;101675.41;5038786;28;19921;-39
2023/05/23 07:25:11;;;;;;;;;;;;;;;15.21;28.29;101719.31;5020196;28;19927;-39
2023/05/23 07:27:36;;;;;;;;;;;;;;;16.09;27.42;101780.88;5038829;28;19927;-39
2023/05/23 07:30:02;;;;;;;;;;;;;;;15.66;28.16;101711.09;5035866;28;19947;-39
2023/05/23 07:32:27;;;;;;;;;;;;;;;15.64;27.81;101694.66;5039473;28;19921;-40
2023/05/23 07:34:52;;;;;;;;;;;;;;;15.38;28.81;101669.81;5037967;28;19944;-39
2023/05/23 07:37:17;;;;;;;;;;;;;;;15.50;28.17;101667.97;5037323;28;20023;-39
2023/05/23 07:39:43;;;;;;;;;;;;;;;15.51;28.23;101664.50;5038937;28;19917;-39
2023/05/23 07:42:08;;;;;;;;;;;;;;;15.58;28.16;101666.19;5039607;28;19916;-39
2023/05/23 07:44:33;;;;;;;;;;;;;;;15.12;28.63;101625.94;5037712;28;20306;-39
2023/05/23 07:46:58;;;;;;;;;;;;;;;15.54;27.53;101662.75;5038602;28;20240;-39
2023/05/23 07:49:24;;;;;;;;;;;;;;;15.34;28.71;101626.56;5039565;28;20023;-39
2023/05/23 07:51:49;;;;;;;;;;;;;;;15.01;29.07;101617.38;5042196;28;19923;-39
2023/05/23 07:54:14;;;;;;;;;;;;;;;14.59;28.58;101609.88;5042386;28;19917;-39
2023/05/23 07:56:39;;;;;;;;;;;;;;;14.72;28.27;101640.94;5042289;28;19931;-39
2023/05/23 07:59:04;;;;;;;;;;;;;;;15.13;27.51;101694.25;5042276;28;19921;-39
2023/05/23 08:01:30;;;;;;;;;;;;;;;14.89;28.35;101679.72;5041975;28;19920;-39
2023/05/23 08:03:55;;;;;;;;;;;;;;;14.96;28.67;101691.78;5042396;28;20270;-39
2023/05/23 08:06:20;;;;;;;;;;;;;;;15.34;27.91;101725.25;5042072;28;19920;-39
2023/05/23 08:08:45;;;;;;;;;;;;;;;14.91;28.65;101694.41;5041285;28;19921;-39
2023/05/23 08:11:11;;;;;;;;;;;;;;;15.00;28.19;101707.31;5040646;28;20036;-39
2023/05/23 08:13:36;;;;;;;;;;;;;;;14.50;29.05;101700.66;5042571;28;19979;-40
2023/05/23 08:16:01;;;;;;;;;;;;;;;14.34;29.28;101707.63;5042012;28;19960;-39
2023/05/23 08:18:27;;;;;;;;;;;;;;;14.43;29.65;101737.84;5040959;28;19979;-39
2023/05/23 08:20:52;;;;;;;;;;;;;;;14.56;29.77;101760.31;5041983;28;19955;-39
2023/05/23 08:23:18;;;;;;;;;;;;;;;14.80;29.73;101780.09;5042617;28;20368;-39
2023/05/23 08:25:43;;;;;;;;;;;;;;;14.82;29.83;101774.88;5041647;28;19924;-39
2023/05/23 08:28:08;;;;;;;;;;;;;;;14.64;29.70;101757.69;5042749;28;19978;-39
2023/05/23 08:30:34;;;;;;;;;;;;;;;14.78;29.74;101768.88;5039160;28;19913;-39
2023/05/23 08:32:59;;;;;;;;;;;;;;;15.44;29.13;101798.72;5041699;28;20027;-39
2023/05/23 08:35:24;;;;;;;;;;;;;;;14.89;30.47;101727.28;5039672;28;19946;-39
2023/05/23 08:37:50;;;;;;;;;;;;;;;15.19;28.45;101740.91;5041905;28;20439;-39
2023/05/23 08:40:20;;;;;;;;;;;;;;;15.30;29.78;101733.91;5042829;28;20003;-39
2023/05/23 08:42:46;;;;;;;;;;;;;;;15.65;28.51;101748.38;5041850;28;19923;-39
2023/05/23 08:45:11;;;;;;;;;;;;;;;15.39;30.11;101713.06;5041543;28;19920;-39
2023/05/23 08:47:37;;;;;;;;;;;;;;;15.05;30.58;101687.41;5042111;28;19917;-39
2023/05/23 08:50:07;;;;;;;;;;;;;;;15.02;29.00;101708.16;5041499;28;20007;-39
2023/05/23 08:52:32;;;;;;;;;;;;;;;14.97;28.90;101724.66;5042138;28;19916;-39
2023/05/23 08:54:58;;;;;;;;;;;;;;;14.89;29.38;101729.88;5041686;28;19948;-39
2023/05/23 08:57:23;;;;;;;;;;;;;;;15.04;29.88;101758.34;5023473;28;19917;-39
2023/05/23 08:59:48;;;;;;;;;;;;;;;15.00;30.35;101735.84;5023190;28;19916;-39
2023/05/23 09:02:14;;;;;;;;;;;;;;;14.89;30.01;101727.28;5041241;28;19923;-39
2023/05/23 09:04:39;;;;;;;;;;;;;;;15.20;29.93;101743.50;5040359;28;19929;-39
2023/05/23 09:07:05;;;;;;;;;;;;;;;15.16;30.60;101730.56;5040901;28;19912;-39
2023/05/23 09:09:30;;;;;;;;;;;;;;;14.69;31.21;101701.47;5039184;28;20299;-39
2023/05/23 09:11:55;;;;;;;;;;;;;;;14.47;31.77;101684.28;5040512;28;20405;-39
2023/05/23 09:14:21;;;;;;;;;;;;;;;14.67;30.92;101715.31;5041224;28;20347;-39
2023/05/23 09:16:49;;;;;;;;;;;;;;;14.99;31.40;101734.16;5040249;28;19936;-39
2023/05/23 09:19:14;;;;;;;;;;;;;;;15.45;32.83;101736.41;5041840;28;19952;-39
2023/05/23 09:21:43;;;;;;;;;;;;;;;14.97;33.46;101677.94;5040776;28;19971;-39
2023/05/23 09:24:08;;;;;;;;;;;;;;;15.10;31.42;101699.47;5039813;28;19927;-39
2023/05/23 09:26:34;;;;;;;;;;;;;;;14.88;32.67;101684.06;5040734;28;19928;-39
2023/05/23 09:28:59;;;;;;;;;;;;;;;15.04;32.30;101710.75;5040414;28;19931;-39
2023/05/23 09:31:28;;;;;;;;;;;;;;;14.47;32.00;101695.50;5038355;28;19913;-39
2023/05/23 09:33:53;;;;;;;;;;;;;;;14.84;29.28;101747.22;5022574;28;20006;-39
2023/05/23 09:36:18;;;;;;;;;;;;;;;14.39;30.59;101741.31;5038577;28;20516;-39
2023/05/23 09:38:45;;;;;;;;;;;;;;;14.69;28.51;101786.19;5040559;28;20038;-39
2023/05/23 09:41:11;;;;;;;;;;;;;;;14.87;28.54;101806.88;5040770;28;19913;-39
2023/05/23 09:43:55;;;;;;;;;;;;;;;14.49;30.15;101776.75;5040118;28;19944;-39
2023/05/23 09:46:20;;;;;;;;;;;;;;;14.45;29.57;101787.97;5039258;28;21029;-39
2023/05/23 09:48:50;;;;;;;;;;;;;;;14.62;30.22;101796.63;5039811;28;19917;-39
2023/05/23 09:51:17;;;;;;;;;;;;;;;14.48;29.88;101800.06;5022380;28;19916;-39
2023/05/23 09:53:42;;;;;;;;;;;;;;;14.34;31.06;101794.94;5040911;28;19985;-39
2023/05/23 09:56:10;;;;;;;;;;;;;;;14.09;31.31;101774.25;5040632;28;19916;-39
2023/05/23 09:58:35;;;;;;;;;;;;;;;14.28;29.94;101818.25;5022537;28;20019;-39
2023/05/23 10:01:03;;;;;;;;;;;;;;;14.68;29.21;101857.97;5039700;28;20000;-39
2023/05/23 10:03:49;;;;;;;;;;;;;;;14.41;30.11;101839.00;5023459;28;20270;-39
2023/05/23 10:06:45;;;;;;;;;;;;;;;13.98;30.88;101825.22;5039986;28;19921;-39
2023/05/23 10:09:14;;;;;;;;;;;;;;;13.97;30.05;101834.72;5037548;28;19928;-39
2023/05/23 10:11:46;;;;;;;;;;;;;;;14.39;30.63;101881.31;5022613;28;19920;-39
2023/05/23 10:14:11;;;;;;;;;;;;;;;14.37;30.63;101885.69;5039753;28;19916;-39
2023/05/23 10:16:36;;;;;;;;;;;;;;;14.15;31.40;101871.88;5020942;28;19931;-39
2023/05/23 10:19:19;;;;;;;;;;;;;;;14.39;30.79;101876.16;5039529;28;19916;-39
2023/05/23 10:21:48;;;;;;;;;;;;;;;14.94;29.56;101891.63;5039691;28;20358;-39
2023/05/23 10:24:13;;;;;;;;;;;;;;;15.00;31.26;101865.63;5022139;28;20316;-39
2023/05/23 10:26:39;;;;;;;;;;;;;;;14.54;31.80;101802.66;5021825;28;19925;-39
2023/05/23 10:29:05;;;;;;;;;;;;;;;14.60;31.91;101803.53;5022073;28;19920;-39
2023/05/23 10:31:30;;;;;;;;;;;;;;;14.80;31.77;101810.34;5037118;28;20389;-39
2023/05/23 10:34:08;;;;;;;;;;;;;;;14.29;32.79;101770.75;5039875;28;19959;-39
2023/05/23 10:36:44;;;;;;;;;;;;;;;14.67;31.95;101808.72;5020578;28;19912;-39
2023/05/23 10:39:18;;;;;;;;;;;;;;;14.30;32.33;101788.03;5022395;28;19917;-39
2023/05/23 10:41:45;;;;;;;;;;;;;;;15.14;30.96;101841.34;5006921;28;19943;-41
2023/05/23 10:44:20;;;;;;;;;;;;;;;15.09;31.61;101825.78;5021567;28;19917;-40
2023/05/23 10:46:52;;;;;;;;;;;;;;;14.59;34.74;101764.63;5021085;28;19921;-39
2023/05/23 10:49:17;;;;;;;;;;;;;;;14.13;34.00;101739.69;5039396;28;19924;-39
2023/05/23 10:51:43;;;;;;;;;;;;;;;13.71;33.25;101741.50;5039785;28;19916;-39
2023/05/23 10:54:11;;;;;;;;;;;;;;;13.38;31.95;101752.72;5021722;28;19928;-40
2023/05/23 10:56:36;;;;;;;;;;;;;;;13.48;30.35;101800.19;5039260;28;20374;-39
2023/05/23 10:59:04;;;;;;;;;;;;;;;13.63;29.59;101835.59;5019376;28;19917;-39
2023/05/23 11:01:29;;;;;;;;;;;;;;;13.35;31.41;101831.25;5038096;28;20015;-39
2023/05/23 11:03:54;;;;;;;;;;;;;;;13.56;30.64;101852.84;5039036;28;20378;-39
2023/05/23 11:06:32;;;;;;;;;;;;;;;13.55;31.58;101848.53;5039516;28;19932;-39
2023/05/23 11:09:10;;;;;;;;;;;;;;;13.75;31.02;101862.38;5039122;28;19916;-39
2023/05/23 11:11:56;;;;;;;;;;;;;;;14.13;31.75;101864.09;5039590;28;20420;-39
2023/05/23 11:14:34;;;;;;;;;;;;;;;14.50;32.10;101860.56;5038722;28;19917;-40
2023/05/23 11:16:59;;;;;;;;;;;;;;;13.90;34.52;101785.53;5039418;28;19921;-39
2023/05/23 11:19:26;;;;;;;;;;;;;;;14.30;35.47;101796.69;5040222;28;19923;-39
2023/05/23 11:21:58;;;;;;;;;;;;;;;13.90;38.01;101723.34;5039434;28;19943;-39
2023/05/23 11:24:44;;;;;;;;;;;;;;;14.55;39.22;101740.44;5038827;28;19931;-39
2023/05/23 11:27:10;;;;;;;;;;;;;;;15.34;41.37;101727.84;5042841;28;19921;-39
2023/05/23 11:29:35;;;;;;;;;;;;;;;14.22;46.68;101617.84;5006344;28;19917;-39
2023/05/23 11:32:07;;;;;;;;;;;;;;;14.68;44.62;101634.03;5025943;28;19917;-39
2023/05/23 11:34:32;;;;;;;;;;;;;;;14.76;48.17;101604.59;5025681;28;20003;-39
2023/05/23 11:36:57;;;;;;;;;;;;;;;15.23;50.76;101599.84;5023196;28;20441;-39
2023/05/23 11:39:22;;;;;;;;;;;;;;;15.33;54.89;101562.56;5043561;28;19916;-39
2023/05/23 11:42:08;;;;;;;;;;;;;;;16.55;63.75;101550.56;5042699;28;19913;-39
2023/05/23 11:44:33;;;;;;;;;;;;;;;17.27;83.77;101400.91;5041195;28;19939;-39
2023/05/23 11:47:02;;;;;;;;;;;;;;;16.69;87.64;101286.69;5042966;28;19921;-39
2023/05/23 11:49:28;;;;;;;;;;;;;;;16.69;96.29;101224.25;5043089;28;20309;-39
2023/05/23 11:51:54;;;;;;;;;;;;;;;15.89;100.00;101127.06;5043007;28;19967;-39
2023/05/23 11:54:23;;;;;;;;;;;;;;;15.77;100.00;101100.50;5042333;28;19987;-39
2023/05/23 11:56:49;;;;;;;;;;;;;;;15.61;100.00;101079.97;5042514;28;20003;-39
2023/05/23 11:59:14;;;;;;;;;;;;;;;15.97;100.00;101066.31;5042842;28;20007;-39
2023/05/23 12:01:39;;;;;;;;;;;;;;;16.05;100.00;100991.63;5024295;28;19920;-39
2023/05/23 12:04:08;;;;;;;;;;;;;;;15.98;100.00;100901.69;5042321;28;19913;-39
2023/05/23 12:06:33;;;;;;;;;;;;;;;16.39;100.00;100840.84;5041052;28;20884;-39
2023/05/23 12:08:59;;;;;;;;;;;;;;;16.89;100.00;100725.91;5040339;28;19921;-39
2023/05/23 12:11:25;;;;;;;;;;;;;;;16.82;100.00;100641.97;5043197;28;19943;-39
2023/05/23 12:13:51;;;;;;;;;;;;;;;17.08;100.00;100583.88;5024082;28;20289;-39
2023/05/23 12:16:16;;;;;;;;;;;;;;;16.44;100.00;100513.09;5041609;28;19923;-39
2023/05/23 12:18:41;;;;;;;;;;;;;;;16.34;100.00;100512.53;5042279;28;19983;-39
2023/05/23 12:21:07;;;;;;;;;;;;;;;15.95;100.00;100502.47;5042883;28;19917;-39
2023/05/23 12:23:32;;;;;;;;;;;;;;;16.49;100.00;100539.81;5041979;28;19913;-39
2023/05/23 12:25:57;;;;;;;;;;;;;;;15.77;100.00;100484.84;5041254;28;19924;-39
2023/05/23 12:28:43;;;;;;;;;;;;;;;16.00;100.00;100516.16;5042261;28;20377;-39
2023/05/23 12:31:12;;;;;;;;;;;;;;;15.64;100.00;100554.41;5037254;28;19928;-39